Disney Magic — C6PT7 — position and weather

sailwx.info

Track history (hours):
 
Tides and Currents Weather Stations Pressure Air Temp Water Temp Dewpoint Dewpoint Depression Visibility Wind Speed Wind Dir Waves Ship Positions

Disney Magic

Last reported at 2017-Jul-23 12:46 UTC. Time now 2017-Jul-24 02:27 UTC.
Position N 48°53' W 005°49'.

Type: Passenger vessel. MMSI: 308516000.

Date/timePositionNaut miles runAvg speedWind from/ knotsBaromVisibWave heightAir tempDewpointWater temp
2017-Jul-23 12:46N 48°53' W 005°49'816.7
2017-Jul-23 12:16N 48°58' W 005°38'917.3
2017-Jul-23 11:45N 49°03' W 005°26'4818.0
2017-Jul-23 09:04N 49°28' W 004°23'217.6
2017-Jul-23 08:56N 49°29' W 004°20'1017.1
2017-Jul-23 08:19N 49°34' W 004°06'616.5
2017-Jul-23 07:58N 49°37' W 003°58'716.1
2017-Jul-23 07:31N 49°40' W 003°48'815.2
2017-Jul-23 07:00N 49°44' W 003°37'715.0
2017-Jul-23 06:31N 49°47' W 003°27'714.9
2017-Jul-23 06:01N 49°51' W 003°18'815.0
2017-Jul-23 05:31N 49°55' W 003°08'815.3
2017-Jul-23 05:01N 49°59' W 002°57'815.6
2017-Jul-23 04:31N 50°01' W 002°46'2317.2
2017-Jul-23 03:09N 50°07' W 002°10'318.7
2017-Jul-23 03:00N 50°08' W 002°06'918.5
2017-Jul-23 02:30N 50°07' W 001°52'1019.6
2017-Jul-23 02:00N 50°03' W 001°38'1019.8
2017-Jul-23 01:31N 49°59' W 001°24'1020.4
2017-Jul-23 01:00N 49°54' W 001°10'1020.0
2017-Jul-23 00:30N 49°50' W 000°56'2418.6
2017-Jul-22 23:14N 49°38' W 000°24'417.7
2017-Jul-22 23:01N 49°36' W 000°19'816.7
2017-Jul-22 22:31N 49°32' W 000°08'713.0
2017-Jul-22 22:00N 49°30' E 000°02'3 6.3
2017-Jul-22 21:30N 49°29' E 000°06'0 0.0
2017-Jul-22 21:00N 49°29' E 000°06'0 0.0
2017-Jul-22 20:30N 49°29' E 000°06'0 0.0
2017-Jul-22 20:00N 49°29' E 000°06'0 0.0
2017-Jul-22 19:30N 49°29' E 000°06'0 0.0
2017-Jul-22 19:00N 49°29' E 000°06'0 0.0
2017-Jul-22 18:30N 49°29' E 000°06'0 0.0
2017-Jul-22 18:00N 49°29' E 000°06'0 0.0
2017-Jul-22 17:30N 49°29' E 000°06'0 0.0
2017-Jul-22 17:00N 49°29' E 000°06'0 0.0
2017-Jul-22 16:30N 49°29' E 000°06'0 0.0
2017-Jul-22 16:00N 49°29' E 000°06'0 0.0
2017-Jul-22 15:30N 49°29' E 000°06'0 0.0
2017-Jul-22 15:00N 49°29' E 000°06'0 0.0
2017-Jul-22 14:00N 49°29' E 000°06'0 0.0
2017-Jul-22 13:30N 49°29' E 000°06'0 0.0
2017-Jul-22 13:00N 49°29' E 000°06'0 0.0
2017-Jul-22 12:30N 49°29' E 000°06'0 0.0
2017-Jul-22 12:00N 49°29' E 000°06'0 0.0
2017-Jul-22 11:30N 49°29' E 000°06'0 0.0
2017-Jul-22 11:00N 49°29' E 000°06'0 0.0
2017-Jul-22 10:30N 49°29' E 000°06'0 0.0
2017-Jul-22 10:00N 49°29' E 000°06'0 0.0
2017-Jul-22 09:30N 49°29' E 000°06'0 0.0
2017-Jul-22 09:00N 49°29' E 000°06'0 0.0
2017-Jul-22 08:30N 49°29' E 000°06'0 0.0
2017-Jul-22 08:00N 49°29' E 000°06'0 0.0
2017-Jul-22 07:30N 49°29' E 000°06'0 0.0
2017-Jul-22 07:00N 49°29' E 000°06'0 0.0
2017-Jul-22 06:30N 49°29' E 000°06'0 0.0
2017-Jul-22 06:00N 49°29' E 000°06'0 0.0
2017-Jul-22 05:30N 49°29' E 000°06'0 0.0
2017-Jul-22 05:00N 49°29' E 000°06'0 0.0
2017-Jul-22 04:30N 49°29' E 000°06'0 0.4
2017-Jul-22 04:00N 49°29' E 000°07'2 3.4
2017-Jul-22 03:30N 49°29' E 000°04'714.1
2017-Jul-22 03:01N 49°31' W 000°06'611.0
2017-Jul-22 02:30N 49°33' W 000°14'612.6
2017-Jul-22 02:00N 49°36' W 000°23'1613.6
2017-Jul-22 00:50N 49°47' W 000°41'515.6
2017-Jul-22 00:30N 49°52' W 000°44'815.5
2017-Jul-22 00:00N 49°59' W 000°48'815.6
2017-Jul-21 23:30N 50°06' W 000°52'2113.0
2017-Jul-21 21:52N 50°23' W 000°30'617.4
2017-Jul-21 21:30N 50°24' W 000°20'917.1
2017-Jul-21 21:00N 50°27' W 000°08'816.6
2017-Jul-21 20:30N 50°29' E 000°05'816.2
2017-Jul-21 20:00N 50°31' E 000°17'815.9
2017-Jul-21 19:30N 50°33' E 000°29'815.7
2017-Jul-21 19:00N 50°38' E 000°39'816.5
2017-Jul-21 18:30N 50°43' E 000°49'917.3
2017-Jul-21 18:00N 50°49' E 000°59'918.3
2017-Jul-21 17:30N 50°56' E 001°09'918.8
2017-Jul-21 17:00N 51°03' E 001°19'4 7.7
2017-Jul-21 16:28N 51°07' E 001°19'0 0.0
2017-Jul-21 15:58N 51°07' E 001°19'0 0.0
2017-Jul-21 15:28N 51°07' E 001°19'0 0.0
2017-Jul-21 14:55N 51°07' E 001°19'0 0.0
2017-Jul-21 14:10N 51°07' E 001°19'0 0.0
2017-Jul-21 13:55N 51°07' E 001°19'0 0.0
2017-Jul-21 13:28N 51°07' E 001°19'0 0.0
2017-Jul-21 12:55N 51°07' E 001°19'0 0.0
2017-Jul-21 12:22N 51°07' E 001°19'0 0.0
2017-Jul-21 11:55N 51°07' E 001°19'0 0.0
2017-Jul-21 11:25N 51°07' E 001°19'0 0.0
2017-Jul-21 10:58N 51°07' E 001°19'0 0.0
2017-Jul-21 10:28N 51°07' E 001°19'0 0.0
2017-Jul-21 09:58N 51°07' E 001°19'0 0.0
2017-Jul-21 09:25N 51°07' E 001°19'0 0.0
2017-Jul-21 08:55N 51°07' E 001°19'0 0.0
2017-Jul-21 08:28N 51°07' E 001°19'0 0.0
2017-Jul-21 07:49N 51°07' E 001°19'0 0.0
2017-Jul-21 07:25N 51°07' E 001°19'0 0.0
2017-Jul-21 06:58N 51°07' E 001°19'0 0.0
2017-Jul-21 06:28N 51°07' E 001°19'0 0.0
2017-Jul-21 05:58N 51°07' E 001°19'0 0.0
2017-Jul-21 05:28N 51°07' E 001°19'0 0.0
2017-Jul-21 04:55N 51°07' E 001°19'0 0.0
2017-Jul-21 04:25N 51°07' E 001°19'0 0.0
2017-Jul-21 03:55N 51°07' E 001°19'0 0.4
2017-Jul-21 03:30N 51°07' E 001°20'4 7.8
2017-Jul-21 03:00N 51°07' E 001°26'4 7.8
2017-Jul-21 02:30N 51°08' E 001°32'5 9.8
2017-Jul-21 02:00N 51°12' E 001°37'5 9.6
2017-Jul-21 01:30N 51°16' E 001°41'5 9.5
2017-Jul-21 01:00N 51°20' E 001°44'4 9.0
2017-Jul-21 00:30N 51°25' E 001°45'5 9.2
2017-Jul-21 00:00N 51°29' E 001°45'5 9.1
2017-Jul-20 23:30N 51°34' E 001°46'5 9.2
2017-Jul-20 23:00N 51°39' E 001°45'4 8.8
2017-Jul-20 22:30N 51°43' E 001°45'4 9.0
2017-Jul-20 22:00N 51°47' E 001°45'5 9.1
2017-Jul-20 21:30N 51°52' E 001°45'4 9.0
2017-Jul-20 21:00N 51°56' E 001°46'4 8.5
2017-Jul-20 20:30N 51°60' E 001°50'4 8.8
2017-Jul-20 20:00N 52°03' E 001°55'4 9.0
2017-Jul-20 19:30N 52°07' E 001°59'2310.5
2017-Jul-20 17:20N 52°29' E 002°08'411.5
2017-Jul-20 17:00N 52°33' E 002°09'611.1
2017-Jul-20 16:30N 52°38' E 002°12'1010.3
2017-Jul-20 15:34N 52°48' E 002°10'210.7
2017-Jul-20 15:25N 52°49' E 002°09'410.2
2017-Jul-20 15:00N 52°53' E 002°06'1111.4
2017-Jul-20 14:00N 52°58' E 001°49'611.3
2017-Jul-20 13:30N 53°01' E 001°41'510.2
2017-Jul-20 13:00N 53°04' E 001°34'5 9.8
2017-Jul-20 12:30N 53°06' E 001°27'5 9.1
2017-Jul-20 12:00N 53°09' E 001°20'4 7.2
2017-Jul-20 11:30N 53°11' E 001°16'0 0.4
2017-Jul-20 11:00N 53°11' E 001°16'1 1.1
2017-Jul-20 10:30N 53°11' E 001°17'0 0.4
2017-Jul-20 10:00N 53°11' E 001°17'3 5.9
2017-Jul-20 09:30N 53°13' E 001°14'4 8.7
2017-Jul-20 09:00N 53°17' E 001°10'5 8.9
2017-Jul-20 08:30N 53°21' E 001°07'42 8.8
2017-Jul-20 03:45N 53°57' E 000°31'310.0
2017-Jul-20 03:29N 53°59' E 000°29'510.0
2017-Jul-20 03:00N 54°03' E 000°25'510.7
2017-Jul-20 02:30N 54°08' E 000°20'510.8
2017-Jul-20 02:00N 54°13' E 000°17'510.7
2017-Jul-20 01:30N 54°18' E 000°12'611.0
2017-Jul-20 01:00N 54°22' E 000°06'510.8
2017-Jul-20 00:30N 54°26' E 000°00'510.7
2017-Jul-20 00:00N 54°30' W 000°05'510.6
2017-Jul-19 23:30N 54°34' W 000°11'510.5
2017-Jul-19 23:01N 54°38' W 000°17'510.3
2017-Jul-19 22:30N 54°42' W 000°23'810.3
2017-Jul-19 21:41N 54°46' W 000°36'210.2
2017-Jul-19 21:29N 54°47' W 000°39'510.2
2017-Jul-19 21:00N 54°50' W 000°46'510.3
2017-Jul-19 20:30N 54°53' W 000°53'510.2
2017-Jul-19 20:00N 54°55' W 001°01'510.2
2017-Jul-19 19:30N 54°58' W 001°09'510.2
2017-Jul-19 19:01N 55°01' W 001°16'5 9.3
2017-Jul-19 18:30N 55°01' W 001°24'2 5.0
2017-Jul-19 18:01N 54°59' W 001°28'1 1.2
2017-Jul-19 17:28N 54°60' W 001°27'0 0.0
2017-Jul-19 16:58N 54°60' W 001°27'0 0.0
2017-Jul-19 16:28N 54°60' W 001°27'0 0.0
2017-Jul-19 15:58N 54°60' W 001°27'0 0.0
2017-Jul-19 15:28N 54°60' W 001°27'0 0.0
2017-Jul-19 14:58N 54°60' W 001°27'0 0.0
2017-Jul-19 14:28N 54°60' W 001°27'0 0.0
2017-Jul-19 13:58N 54°60' W 001°27'0 0.0
2017-Jul-19 13:28N 54°60' W 001°27'0 0.0
2017-Jul-19 12:58N 54°60' W 001°27'0 0.0
2017-Jul-19 12:30N 54°60' W 001°27'0 0.0
2017-Jul-19 12:00N 54°60' W 001°27'0 0.0
2017-Jul-19 11:30N 54°60' W 001°27'0 0.0
2017-Jul-19 11:00N 54°60' W 001°27'0 0.0
2017-Jul-19 10:30N 54°60' W 001°27'0 0.0
2017-Jul-19 10:00N 54°60' W 001°27'0 0.0
2017-Jul-19 09:30N 54°60' W 001°27'0 0.0
2017-Jul-19 09:00N 54°60' W 001°27'0 0.0
2017-Jul-19 08:30N 54°60' W 001°27'0 0.0
2017-Jul-19 08:00N 54°60' W 001°27'0 0.0
2017-Jul-19 07:30N 54°60' W 001°27'1 1.6
2017-Jul-19 07:00N 55°00' W 001°26'4 7.6
2017-Jul-19 06:31N 55°02' W 001°20'714.1
2017-Jul-19 06:00N 55°08' W 001°16'816.8
2017-Jul-19 05:30N 55°17' W 001°17'917.1
2017-Jul-19 05:00N 55°25' W 001°18'1417.2
2017-Jul-19 04:13N 55°39' W 001°19'417.0
2017-Jul-19 04:00N 55°43' W 001°20'817.1
2017-Jul-19 03:30N 55°51' W 001°21'1019.9
2017-Jul-19 03:00N 56°01' W 001°22'1020.7
2017-Jul-19 02:30N 56°11' W 001°24'1020.7
2017-Jul-19 02:00N 56°22' W 001°26'1020.6
2017-Jul-19 01:30N 56°32' W 001°27'1020.8
2017-Jul-19 01:00N 56°42' W 001°28'1020.7
2017-Jul-19 00:30N 56°53' W 001°29'1120.8
2017-Jul-19 00:00N 57°03' W 001°30'1020.8
2017-Jul-18 23:30N 57°13' W 001°32'1121.0
2017-Jul-18 22:58N 57°25' W 001°33'1021.5
2017-Jul-18 22:30N 57°34' W 001°34'1121.3
2017-Jul-18 22:00N 57°45' W 001°40'52 2.0
2017-Jul-17 20:28N 58°31' W 002°27'510.8
2017-Jul-17 20:00N 58°36' W 002°23'1013.4
2017-Jul-17 19:14N 58°45' W 002°17'418.1
2017-Jul-17 18:59N 58°49' W 002°14'816.4
2017-Jul-17 18:30N 58°55' W 002°24'917.7
2017-Jul-17 18:00N 58°60' W 002°39'815.3
2017-Jul-17 17:30N 59°01' W 002°54'2 5.0
2017-Jul-17 17:00N 59°00' W 002°59'0 0.0
2017-Jul-17 16:28N 59°00' W 002°59'0 0.0
2017-Jul-17 15:58N 59°00' W 002°59'0 0.0
2017-Jul-17 15:28N 59°00' W 002°59'0 0.0
2017-Jul-17 14:58N 59°00' W 002°59'0 0.0
2017-Jul-17 14:25N 59°00' W 002°59'0 0.0
2017-Jul-17 13:58N 59°00' W 002°59'0 0.0
2017-Jul-17 13:22N 59°00' W 002°59'0 0.0
2017-Jul-17 12:58N 59°00' W 002°59'0 0.0
2017-Jul-17 12:28N 59°00' W 002°59'0 0.0
2017-Jul-17 11:58N 59°00' W 002°59'0 0.0
2017-Jul-17 11:28N 59°00' W 002°59'0 0.0
2017-Jul-17 10:58N 59°00' W 002°59'0 0.0
2017-Jul-17 10:28N 59°00' W 002°59'0 0.0
2017-Jul-17 09:58N 59°00' W 002°59'0 0.0
2017-Jul-17 09:28N 59°00' W 002°59'0 0.0
2017-Jul-17 08:58N 59°00' W 002°59'0 0.0
2017-Jul-17 08:28N 59°00' W 002°59'0 0.0
2017-Jul-17 07:58N 59°00' W 002°59'0 0.0
2017-Jul-17 07:28N 59°00' W 002°59'0 0.0
2017-Jul-17 06:58N 59°00' W 002°59'0 0.0
2017-Jul-17 06:28N 59°00' W 002°59'2 4.2
2017-Jul-17 06:00N 59°02' W 002°56'5 9.7
2017-Jul-17 05:30N 59°00' W 002°47'3 6.3
2017-Jul-17 05:00N 59°00' W 002°41'3 6.7
2017-Jul-17 04:30N 58°59' W 002°35'4 8.1
2017-Jul-17 04:00N 58°58' W 002°27'4 8.0
2017-Jul-17 03:29N 58°56' W 002°20'30 3.0
2017-Jul-16 17:39N 58°28' W 002°36'2 8.1
2017-Jul-16 17:25N 58°29' W 002°38'3 7.9
2017-Jul-16 17:00N 58°31' W 002°43'4 8.1
2017-Jul-16 16:30N 58°34' W 002°48'510.9
2017-Jul-16 16:00N 58°38' W 002°56'919.0
2017-Jul-16 15:30N 58°43' W 003°11'1019.6
2017-Jul-16 15:00N 58°44' W 003°30'918.8
2017-Jul-16 14:30N 58°48' W 003°46'1021.1
2017-Jul-16 14:01N 58°49' W 004°06'1122.0
2017-Jul-16 13:30N 58°47' W 004°28'19218.1
2017-Jul-16 02:57N 55°57' W 007°10'816.9
2017-Jul-16 02:30N 55°50' W 007°06'816.5
2017-Jul-16 02:00N 55°43' W 006°60'815.5
2017-Jul-16 01:30N 55°36' W 006°54'815.2
2017-Jul-16 01:00N 55°31' W 006°43'815.3
2017-Jul-16 00:30N 55°28' W 006°31'815.5
2017-Jul-16 00:00N 55°27' W 006°17'815.8
2017-Jul-15 23:30N 55°24' W 006°04'815.5
2017-Jul-15 23:00N 55°18' W 005°56'815.6
2017-Jul-15 22:30N 55°13' W 005°45'814.7
2017-Jul-15 21:56N 55°12' W 005°30'22 1.2
2017-Jul-15 03:35N 55°22' W 004°57'1517.6
2017-Jul-15 02:42N 55°09' W 005°10'417.8
2017-Jul-15 02:30N 55°06' W 005°14'917.7
2017-Jul-15 02:01N 54°59' W 005°24'816.5
2017-Jul-15 01:31N 54°51' W 005°23'816.8
2017-Jul-15 01:01N 54°43' W 005°19'816.5
2017-Jul-15 00:31N 54°35' W 005°15'917.3
2017-Jul-15 00:01N 54°27' W 005°11'1020.3
2017-Jul-14 23:31N 54°17' W 005°06'1020.9
2017-Jul-14 23:00N 54°07' W 005°01'1020.6
2017-Jul-14 22:30N 53°57' W 004°55'4120.7
2017-Jul-14 20:30N 53°37' W 003°54'1018.9
2017-Jul-14 20:00N 53°34' W 003°39'917.4
2017-Jul-14 19:31N 53°33' W 003°24'611.4
2017-Jul-14 19:01N 53°31' W 003°15'510.8
2017-Jul-14 18:30N 53°31' W 003°06'611.3
2017-Jul-14 18:00N 53°26' W 003°01'2 3.3
2017-Jul-14 17:28N 53°24' W 003°00'0 0.0
2017-Jul-14 16:55N 53°24' W 003°00'0 0.0
2017-Jul-14 16:28N 53°24' W 003°00'0 0.0
2017-Jul-14 15:58N 53°24' W 003°00'0 0.0
2017-Jul-14 15:25N 53°24' W 003°00'0 0.0
2017-Jul-14 14:58N 53°24' W 003°00'0 0.0
2017-Jul-14 14:28N 53°24' W 003°00'0 0.0
2017-Jul-14 13:55N 53°24' W 003°00'0 0.0
2017-Jul-14 13:25N 53°24' W 003°00'0 0.0
2017-Jul-14 12:58N 53°24' W 003°00'0 0.0
2017-Jul-14 12:28N 53°24' W 003°00'0 0.0
2017-Jul-14 11:58N 53°24' W 003°00'0 0.0
2017-Jul-14 11:28N 53°24' W 003°00'0 0.0
2017-Jul-14 10:58N 53°24' W 003°00'0 0.0
2017-Jul-14 10:28N 53°24' W 003°00'0 0.0
2017-Jul-14 09:58N 53°24' W 003°00'0 0.0
2017-Jul-14 09:28N 53°24' W 003°00'0 0.0
2017-Jul-14 08:58N 53°24' W 003°00'0 0.0
2017-Jul-14 08:28N 53°24' W 003°00'0 0.0
2017-Jul-14 07:58N 53°24' W 003°00'0 0.0
2017-Jul-14 07:28N 53°24' W 003°00'0 0.0
2017-Jul-14 06:58N 53°24' W 003°00'0 0.0
2017-Jul-14 06:30N 53°24' W 003°00'3 5.4
2017-Jul-14 06:00N 53°27' W 003°02'713.2
2017-Jul-14 05:30N 53°32' W 003°09'713.7
2017-Jul-14 05:00N 53°31' W 003°21'713.1
2017-Jul-14 04:30N 53°31' W 003°32'816.2
2017-Jul-14 04:00N 53°32' W 003°45'817.1
2017-Jul-14 03:30N 53°36' W 003°58'6317.2
2017-Jul-13 23:50N 53°22' W 005°42'618.1
2017-Jul-13 23:29N 53°20' W 005°52'815.4
2017-Jul-13 22:59N 53°20' W 006°05'5 7.6
2017-Jul-13 22:22N 53°21' W 006°12'0 0.3
2017-Jul-13 21:05N 53°21' W 006°13'0 0.0
2017-Jul-13 20:41N 53°21' W 006°13'0 0.0
2017-Jul-13 19:59N 53°21' W 006°13'0 0.0
2017-Jul-13 17:47N 53°21' W 006°13'0 0.0
2017-Jul-13 16:35N 53°21' W 006°13'0 0.0
2017-Jul-13 16:05N 53°21' W 006°13'0 0.0
2017-Jul-13 15:59N 53°21' W 006°13'0 0.0
2017-Jul-13 13:11N 53°21' W 006°13'  
Track history (hours):
 
Tides and Currents Weather Stations Pressure Air Temp Water Temp Dewpoint Dewpoint Depression Visibility Wind Speed Wind Dir Waves Ship Positions

Disney Magic

Last reported at 2017-Jul-23 12:46 UTC. Time now 2017-Jul-24 02:27 UTC.
Position N 48°53' W 005°49'.

Type: Passenger vessel. MMSI: 308516000.

Date/timePositionNaut miles runAvg speedWind from/ knotsBaromVisibWave heightAir tempDewpointWater temp
2017-Jul-23 12:46N 48°53' W 005°49'816.7
2017-Jul-23 12:16N 48°58' W 005°38'917.3
2017-Jul-23 11:45N 49°03' W 005°26'4818.0
2017-Jul-23 09:04N 49°28' W 004°23'217.6
2017-Jul-23 08:56N 49°29' W 004°20'1017.1
2017-Jul-23 08:19N 49°34' W 004°06'616.5
2017-Jul-23 07:58N 49°37' W 003°58'716.1
2017-Jul-23 07:31N 49°40' W 003°48'815.2
2017-Jul-23 07:00N 49°44' W 003°37'715.0
2017-Jul-23 06:31N 49°47' W 003°27'714.9
2017-Jul-23 06:01N 49°51' W 003°18'815.0
2017-Jul-23 05:31N 49°55' W 003°08'815.3
2017-Jul-23 05:01N 49°59' W 002°57'815.6
2017-Jul-23 04:31N 50°01' W 002°46'2317.2
2017-Jul-23 03:09N 50°07' W 002°10'318.7
2017-Jul-23 03:00N 50°08' W 002°06'918.5
2017-Jul-23 02:30N 50°07' W 001°52'1019.6
2017-Jul-23 02:00N 50°03' W 001°38'1019.8
2017-Jul-23 01:31N 49°59' W 001°24'1020.4
2017-Jul-23 01:00N 49°54' W 001°10'1020.0
2017-Jul-23 00:30N 49°50' W 000°56'2418.6
2017-Jul-22 23:14N 49°38' W 000°24'417.7
2017-Jul-22 23:01N 49°36' W 000°19'816.7
2017-Jul-22 22:31N 49°32' W 000°08'713.0
2017-Jul-22 22:00N 49°30' E 000°02'3 6.3
2017-Jul-22 21:30N 49°29' E 000°06'0 0.0
2017-Jul-22 21:00N 49°29' E 000°06'0 0.0
2017-Jul-22 20:30N 49°29' E 000°06'0 0.0
2017-Jul-22 20:00N 49°29' E 000°06'0 0.0
2017-Jul-22 19:30N 49°29' E 000°06'0 0.0
2017-Jul-22 19:00N 49°29' E 000°06'0 0.0
2017-Jul-22 18:30N 49°29' E 000°06'0 0.0
2017-Jul-22 18:00N 49°29' E 000°06'0 0.0
2017-Jul-22 17:30N 49°29' E 000°06'0 0.0
2017-Jul-22 17:00N 49°29' E 000°06'0 0.0
2017-Jul-22 16:30N 49°29' E 000°06'0 0.0
2017-Jul-22 16:00N 49°29' E 000°06'0 0.0
2017-Jul-22 15:30N 49°29' E 000°06'0 0.0
2017-Jul-22 15:00N 49°29' E 000°06'0 0.0
2017-Jul-22 14:00N 49°29' E 000°06'0 0.0
2017-Jul-22 13:30N 49°29' E 000°06'0 0.0
2017-Jul-22 13:00N 49°29' E 000°06'0 0.0
2017-Jul-22 12:30N 49°29' E 000°06'0 0.0
2017-Jul-22 12:00N 49°29' E 000°06'0 0.0
2017-Jul-22 11:30N 49°29' E 000°06'0 0.0
2017-Jul-22 11:00N 49°29' E 000°06'0 0.0
2017-Jul-22 10:30N 49°29' E 000°06'0 0.0
2017-Jul-22 10:00N 49°29' E 000°06'0 0.0
2017-Jul-22 09:30N 49°29' E 000°06'0 0.0
2017-Jul-22 09:00N 49°29' E 000°06'0 0.0
2017-Jul-22 08:30N 49°29' E 000°06'0 0.0
2017-Jul-22 08:00N 49°29' E 000°06'0 0.0
2017-Jul-22 07:30N 49°29' E 000°06'0 0.0
2017-Jul-22 07:00N 49°29' E 000°06'0 0.0
2017-Jul-22 06:30N 49°29' E 000°06'0 0.0
2017-Jul-22 06:00N 49°29' E 000°06'0 0.0
2017-Jul-22 05:30N 49°29' E 000°06'0 0.0
2017-Jul-22 05:00N 49°29' E 000°06'0 0.0
2017-Jul-22 04:30N 49°29' E 000°06'0 0.4
2017-Jul-22 04:00N 49°29' E 000°07'2 3.4
2017-Jul-22 03:30N 49°29' E 000°04'714.1
2017-Jul-22 03:01N 49°31' W 000°06'611.0
2017-Jul-22 02:30N 49°33' W 000°14'612.6
2017-Jul-22 02:00N 49°36' W 000°23'1613.6
2017-Jul-22 00:50N 49°47' W 000°41'515.6
2017-Jul-22 00:30N 49°52' W 000°44'815.5
2017-Jul-22 00:00N 49°59' W 000°48'815.6
2017-Jul-21 23:30N 50°06' W 000°52'2113.0
2017-Jul-21 21:52N 50°23' W 000°30'617.4
2017-Jul-21 21:30N 50°24' W 000°20'917.1
2017-Jul-21 21:00N 50°27' W 000°08'816.6
2017-Jul-21 20:30N 50°29' E 000°05'816.2
2017-Jul-21 20:00N 50°31' E 000°17'815.9
2017-Jul-21 19:30N 50°33' E 000°29'815.7
2017-Jul-21 19:00N 50°38' E 000°39'816.5
2017-Jul-21 18:30N 50°43' E 000°49'917.3
2017-Jul-21 18:00N 50°49' E 000°59'918.3
2017-Jul-21 17:30N 50°56' E 001°09'918.8
2017-Jul-21 17:00N 51°03' E 001°19'4 7.7
2017-Jul-21 16:28N 51°07' E 001°19'0 0.0
2017-Jul-21 15:58N 51°07' E 001°19'0 0.0
2017-Jul-21 15:28N 51°07' E 001°19'0 0.0
2017-Jul-21 14:55N 51°07' E 001°19'0 0.0
2017-Jul-21 14:10N 51°07' E 001°19'0 0.0
2017-Jul-21 13:55N 51°07' E 001°19'0 0.0
2017-Jul-21 13:28N 51°07' E 001°19'0 0.0
2017-Jul-21 12:55N 51°07' E 001°19'0 0.0
2017-Jul-21 12:22N 51°07' E 001°19'0 0.0
2017-Jul-21 11:55N 51°07' E 001°19'0 0.0
2017-Jul-21 11:25N 51°07' E 001°19'0 0.0
2017-Jul-21 10:58N 51°07' E 001°19'0 0.0
2017-Jul-21 10:28N 51°07' E 001°19'0 0.0
2017-Jul-21 09:58N 51°07' E 001°19'0 0.0
2017-Jul-21 09:25N 51°07' E 001°19'0 0.0
2017-Jul-21 08:55N 51°07' E 001°19'0 0.0
2017-Jul-21 08:28N 51°07' E 001°19'0 0.0
2017-Jul-21 07:49N 51°07' E 001°19'0 0.0
2017-Jul-21 07:25N 51°07' E 001°19'0 0.0
2017-Jul-21 06:58N 51°07' E 001°19'0 0.0
2017-Jul-21 06:28N 51°07' E 001°19'0 0.0
2017-Jul-21 05:58N 51°07' E 001°19'0 0.0
2017-Jul-21 05:28N 51°07' E 001°19'0 0.0
2017-Jul-21 04:55N 51°07' E 001°19'0 0.0
2017-Jul-21 04:25N 51°07' E 001°19'0 0.0
2017-Jul-21 03:55N 51°07' E 001°19'0 0.4
2017-Jul-21 03:30N 51°07' E 001°20'4 7.8
2017-Jul-21 03:00N 51°07' E 001°26'4 7.8
2017-Jul-21 02:30N 51°08' E 001°32'5 9.8
2017-Jul-21 02:00N 51°12' E 001°37'5 9.6
2017-Jul-21 01:30N 51°16' E 001°41'5 9.5
2017-Jul-21 01:00N 51°20' E 001°44'4 9.0
2017-Jul-21 00:30N 51°25' E 001°45'5 9.2
2017-Jul-21 00:00N 51°29' E 001°45'5 9.1
2017-Jul-20 23:30N 51°34' E 001°46'5 9.2
2017-Jul-20 23:00N 51°39' E 001°45'4 8.8
2017-Jul-20 22:30N 51°43' E 001°45'4 9.0
2017-Jul-20 22:00N 51°47' E 001°45'5 9.1
2017-Jul-20 21:30N 51°52' E 001°45'4 9.0
2017-Jul-20 21:00N 51°56' E 001°46'4 8.5
2017-Jul-20 20:30N 51°60' E 001°50'4 8.8
2017-Jul-20 20:00N 52°03' E 001°55'4 9.0
2017-Jul-20 19:30N 52°07' E 001°59'2310.5
2017-Jul-20 17:20N 52°29' E 002°08'411.5
2017-Jul-20 17:00N 52°33' E 002°09'611.1
2017-Jul-20 16:30N 52°38' E 002°12'1010.3
2017-Jul-20 15:34N 52°48' E 002°10'210.7
2017-Jul-20 15:25N 52°49' E 002°09'410.2
2017-Jul-20 15:00N 52°53' E 002°06'1111.4
2017-Jul-20 14:00N 52°58' E 001°49'611.3
2017-Jul-20 13:30N 53°01' E 001°41'510.2
2017-Jul-20 13:00N 53°04' E 001°34'5 9.8
2017-Jul-20 12:30N 53°06' E 001°27'5 9.1
2017-Jul-20 12:00N 53°09' E 001°20'4 7.2
2017-Jul-20 11:30N 53°11' E 001°16'0 0.4
2017-Jul-20 11:00N 53°11' E 001°16'1 1.1
2017-Jul-20 10:30N 53°11' E 001°17'0 0.4
2017-Jul-20 10:00N 53°11' E 001°17'3 5.9
2017-Jul-20 09:30N 53°13' E 001°14'4 8.7
2017-Jul-20 09:00N 53°17' E 001°10'5 8.9
2017-Jul-20 08:30N 53°21' E 001°07'42 8.8
2017-Jul-20 03:45N 53°57' E 000°31'310.0
2017-Jul-20 03:29N 53°59' E 000°29'510.0
2017-Jul-20 03:00N 54°03' E 000°25'510.7
2017-Jul-20 02:30N 54°08' E 000°20'510.8
2017-Jul-20 02:00N 54°13' E 000°17'510.7
2017-Jul-20 01:30N 54°18' E 000°12'611.0
2017-Jul-20 01:00N 54°22' E 000°06'510.8
2017-Jul-20 00:30N 54°26' E 000°00'510.7
2017-Jul-20 00:00N 54°30' W 000°05'510.6
2017-Jul-19 23:30N 54°34' W 000°11'510.5
2017-Jul-19 23:01N 54°38' W 000°17'510.3
2017-Jul-19 22:30N 54°42' W 000°23'810.3
2017-Jul-19 21:41N 54°46' W 000°36'210.2
2017-Jul-19 21:29N 54°47' W 000°39'510.2
2017-Jul-19 21:00N 54°50' W 000°46'510.3
2017-Jul-19 20:30N 54°53' W 000°53'510.2
2017-Jul-19 20:00N 54°55' W 001°01'510.2
2017-Jul-19 19:30N 54°58' W 001°09'510.2
2017-Jul-19 19:01N 55°01' W 001°16'5 9.3
2017-Jul-19 18:30N 55°01' W 001°24'2 5.0
2017-Jul-19 18:01N 54°59' W 001°28'1 1.2
2017-Jul-19 17:28N 54°60' W 001°27'0 0.0
2017-Jul-19 16:58N 54°60' W 001°27'0 0.0
2017-Jul-19 16:28N 54°60' W 001°27'0 0.0
2017-Jul-19 15:58N 54°60' W 001°27'0 0.0
2017-Jul-19 15:28N 54°60' W 001°27'0 0.0
2017-Jul-19 14:58N 54°60' W 001°27'0 0.0
2017-Jul-19 14:28N 54°60' W 001°27'0 0.0
2017-Jul-19 13:58N 54°60' W 001°27'0 0.0
2017-Jul-19 13:28N 54°60' W 001°27'0 0.0
2017-Jul-19 12:58N 54°60' W 001°27'0 0.0
2017-Jul-19 12:30N 54°60' W 001°27'0 0.0
2017-Jul-19 12:00N 54°60' W 001°27'0 0.0
2017-Jul-19 11:30N 54°60' W 001°27'0 0.0
2017-Jul-19 11:00N 54°60' W 001°27'0 0.0
2017-Jul-19 10:30N 54°60' W 001°27'0 0.0
2017-Jul-19 10:00N 54°60' W 001°27'0 0.0
2017-Jul-19 09:30N 54°60' W 001°27'0 0.0
2017-Jul-19 09:00N 54°60' W 001°27'0 0.0
2017-Jul-19 08:30N 54°60' W 001°27'0 0.0
2017-Jul-19 08:00N 54°60' W 001°27'0 0.0
2017-Jul-19 07:30N 54°60' W 001°27'1 1.6
2017-Jul-19 07:00N 55°00' W 001°26'4 7.6
2017-Jul-19 06:31N 55°02' W 001°20'714.1
2017-Jul-19 06:00N 55°08' W 001°16'816.8
2017-Jul-19 05:30N 55°17' W 001°17'917.1
2017-Jul-19 05:00N 55°25' W 001°18'1417.2
2017-Jul-19 04:13N 55°39' W 001°19'417.0
2017-Jul-19 04:00N 55°43' W 001°20'817.1
2017-Jul-19 03:30N 55°51' W 001°21'1019.9
2017-Jul-19 03:00N 56°01' W 001°22'1020.7
2017-Jul-19 02:30N 56°11' W 001°24'1020.7
2017-Jul-19 02:00N 56°22' W 001°26'1020.6
2017-Jul-19 01:30N 56°32' W 001°27'1020.8
2017-Jul-19 01:00N 56°42' W 001°28'1020.7
2017-Jul-19 00:30N 56°53' W 001°29'1120.8
2017-Jul-19 00:00N 57°03' W 001°30'1020.8
2017-Jul-18 23:30N 57°13' W 001°32'1121.0
2017-Jul-18 22:58N 57°25' W 001°33'1021.5
2017-Jul-18 22:30N 57°34' W 001°34'1121.3
2017-Jul-18 22:00N 57°45' W 001°40'52 2.0
2017-Jul-17 20:28N 58°31' W 002°27'510.8
2017-Jul-17 20:00N 58°36' W 002°23'1013.4
2017-Jul-17 19:14N 58°45' W 002°17'418.1
2017-Jul-17 18:59N 58°49' W 002°14'816.4
2017-Jul-17 18:30N 58°55' W 002°24'917.7
2017-Jul-17 18:00N 58°60' W 002°39'815.3
2017-Jul-17 17:30N 59°01' W 002°54'2 5.0
2017-Jul-17 17:00N 59°00' W 002°59'0 0.0
2017-Jul-17 16:28N 59°00' W 002°59'0 0.0
2017-Jul-17 15:58N 59°00' W 002°59'0 0.0
2017-Jul-17 15:28N 59°00' W 002°59'0 0.0
2017-Jul-17 14:58N 59°00' W 002°59'0 0.0
2017-Jul-17 14:25N 59°00' W 002°59'0 0.0
2017-Jul-17 13:58N 59°00' W 002°59'0 0.0
2017-Jul-17 13:22N 59°00' W 002°59'0 0.0
2017-Jul-17 12:58N 59°00' W 002°59'0 0.0
2017-Jul-17 12:28N 59°00' W 002°59'0 0.0
2017-Jul-17 11:58N 59°00' W 002°59'0 0.0
2017-Jul-17 11:28N 59°00' W 002°59'0 0.0
2017-Jul-17 10:58N 59°00' W 002°59'0 0.0
2017-Jul-17 10:28N 59°00' W 002°59'0 0.0
2017-Jul-17 09:58N 59°00' W 002°59'0 0.0
2017-Jul-17 09:28N 59°00' W 002°59'0 0.0
2017-Jul-17 08:58N 59°00' W 002°59'0 0.0
2017-Jul-17 08:28N 59°00' W 002°59'0 0.0
2017-Jul-17 07:58N 59°00' W 002°59'0 0.0
2017-Jul-17 07:28N 59°00' W 002°59'0 0.0
2017-Jul-17 06:58N 59°00' W 002°59'0 0.0
2017-Jul-17 06:28N 59°00' W 002°59'2 4.2
2017-Jul-17 06:00N 59°02' W 002°56'5 9.7
2017-Jul-17 05:30N 59°00' W 002°47'3 6.3
2017-Jul-17 05:00N 59°00' W 002°41'3 6.7
2017-Jul-17 04:30N 58°59' W 002°35'4 8.1
2017-Jul-17 04:00N 58°58' W 002°27'4 8.0
2017-Jul-17 03:29N 58°56' W 002°20'30 3.0
2017-Jul-16 17:39N 58°28' W 002°36'2 8.1
2017-Jul-16 17:25N 58°29' W 002°38'3 7.9
2017-Jul-16 17:00N 58°31' W 002°43'4 8.1
2017-Jul-16 16:30N 58°34' W 002°48'510.9
2017-Jul-16 16:00N 58°38' W 002°56'919.0
2017-Jul-16 15:30N 58°43' W 003°11'1019.6
2017-Jul-16 15:00N 58°44' W 003°30'918.8
2017-Jul-16 14:30N 58°48' W 003°46'1021.1
2017-Jul-16 14:01N 58°49' W 004°06'1122.0
2017-Jul-16 13:30N 58°47' W 004°28'19218.1
2017-Jul-16 02:57N 55°57' W 007°10'816.9
2017-Jul-16 02:30N 55°50' W 007°06'816.5
2017-Jul-16 02:00N 55°43' W 006°60'815.5
2017-Jul-16 01:30N 55°36' W 006°54'815.2
2017-Jul-16 01:00N 55°31' W 006°43'815.3
2017-Jul-16 00:30N 55°28' W 006°31'815.5
2017-Jul-16 00:00N 55°27' W 006°17'815.8
2017-Jul-15 23:30N 55°24' W 006°04'815.5
2017-Jul-15 23:00N 55°18' W 005°56'815.6
2017-Jul-15 22:30N 55°13' W 005°45'814.7
2017-Jul-15 21:56N 55°12' W 005°30'22 1.2
2017-Jul-15 03:35N 55°22' W 004°57'1517.6
2017-Jul-15 02:42N 55°09' W 005°10'417.8
2017-Jul-15 02:30N 55°06' W 005°14'917.7
2017-Jul-15 02:01N 54°59' W 005°24'816.5
2017-Jul-15 01:31N 54°51' W 005°23'816.8
2017-Jul-15 01:01N 54°43' W 005°19'816.5
2017-Jul-15 00:31N 54°35' W 005°15'917.3
2017-Jul-15 00:01N 54°27' W 005°11'1020.3
2017-Jul-14 23:31N 54°17' W 005°06'1020.9
2017-Jul-14 23:00N 54°07' W 005°01'1020.6
2017-Jul-14 22:30N 53°57' W 004°55'4120.7
2017-Jul-14 20:30N 53°37' W 003°54'1018.9
2017-Jul-14 20:00N 53°34' W 003°39'917.4
2017-Jul-14 19:31N 53°33' W 003°24'611.4
2017-Jul-14 19:01N 53°31' W 003°15'510.8
2017-Jul-14 18:30N 53°31' W 003°06'611.3
2017-Jul-14 18:00N 53°26' W 003°01'2 3.3
2017-Jul-14 17:28N 53°24' W 003°00'0 0.0
2017-Jul-14 16:55N 53°24' W 003°00'0 0.0
2017-Jul-14 16:28N 53°24' W 003°00'0 0.0
2017-Jul-14 15:58N 53°24' W 003°00'0 0.0
2017-Jul-14 15:25N 53°24' W 003°00'0 0.0
2017-Jul-14 14:58N 53°24' W 003°00'0 0.0
2017-Jul-14 14:28N 53°24' W 003°00'0 0.0
2017-Jul-14 13:55N 53°24' W 003°00'0 0.0
2017-Jul-14 13:25N 53°24' W 003°00'0 0.0
2017-Jul-14 12:58N 53°24' W 003°00'0 0.0
2017-Jul-14 12:28N 53°24' W 003°00'0 0.0
2017-Jul-14 11:58N 53°24' W 003°00'0 0.0
2017-Jul-14 11:28N 53°24' W 003°00'0 0.0
2017-Jul-14 10:58N 53°24' W 003°00'0 0.0
2017-Jul-14 10:28N 53°24' W 003°00'0 0.0
2017-Jul-14 09:58N 53°24' W 003°00'0 0.0
2017-Jul-14 09:28N 53°24' W 003°00'0 0.0
2017-Jul-14 08:58N 53°24' W 003°00'0 0.0
2017-Jul-14 08:28N 53°24' W 003°00'0 0.0
2017-Jul-14 07:58N 53°24' W 003°00'0 0.0
2017-Jul-14 07:28N 53°24' W 003°00'0 0.0
2017-Jul-14 06:58N 53°24' W 003°00'0 0.0
2017-Jul-14 06:30N 53°24' W 003°00'3 5.4
2017-Jul-14 06:00N 53°27' W 003°02'713.2
2017-Jul-14 05:30N 53°32' W 003°09'713.7
2017-Jul-14 05:00N 53°31' W 003°21'713.1
2017-Jul-14 04:30N 53°31' W 003°32'816.2
2017-Jul-14 04:00N 53°32' W 003°45'817.1
2017-Jul-14 03:30N 53°36' W 003°58'6317.2
2017-Jul-13 23:50N 53°22' W 005°42'618.1
2017-Jul-13 23:29N 53°20' W 005°52'815.4
2017-Jul-13 22:59N 53°20' W 006°05'5 7.6
2017-Jul-13 22:22N 53°21' W 006°12'0 0.3
2017-Jul-13 21:05N 53°21' W 006°13'0 0.0
2017-Jul-13 20:41N 53°21' W 006°13'0 0.0
2017-Jul-13 19:59N 53°21' W 006°13'0 0.0
2017-Jul-13 17:47N 53°21' W 006°13'0 0.0
2017-Jul-13 16:35N 53°21' W 006°13'0 0.0
2017-Jul-13 16:05N 53°21' W 006°13'0 0.0
2017-Jul-13 15:59N 53°21' W 006°13'0 0.0
2017-Jul-13 13:11N 53°21' W 006°13'  

Dump ship's entire track history